Wan Hai 501 — S6AS7 — position and weather

sailwx.info

Track history (hours):
 
Tides and Currents Weather Stations Pressure Air Temp Water Temp Dewpoint Dewpoint Depression Visibility Wind Speed Wind Dir Waves Ship Positions

Wan Hai 501

Last reported at 2014-Jul-12 03:26 UTC. Time now 2014-Jul-24 12:19 UTC.
Position N 01°13' E 103°41'.
Warning: this ship's position is 12 days out of date.

Length 269 m; draft 11.6 m.

Type: Cargo ship. MMSI: 563382000.

Date/timePositionNaut miles runAvg speedWind from/ knotsBaromVisibWave heightAir tempDewpointWater temp
2014-Jul-12 03:26N 01°13' E 103°41'6 6.9
2014-Jul-12 02:33N 01°17' E 103°46'0 0.0
2014-Jul-12 01:33N 01°17' E 103°46'0 0.0
2014-Jul-12 00:33N 01°17' E 103°46'0 0.0
2014-Jul-11 22:33N 01°17' E 103°46'0 0.0
2014-Jul-11 20:33N 01°17' E 103°46'0 0.0
2014-Jul-11 19:33N 01°17' E 103°46'0 0.0
2014-Jul-11 18:21N 01°17' E 103°46'0 0.0
2014-Jul-11 17:27N 01°17' E 103°46'0 0.0
2014-Jul-11 16:27N 01°17' E 103°46'0 0.0
2014-Jul-11 15:33N 01°17' E 103°46'0 0.0
2014-Jul-11 13:33N 01°17' E 103°46'0 0.0
2014-Jul-11 12:21N 01°17' E 103°46'0 0.0
2014-Jul-11 11:27N 01°17' E 103°46'0 0.0
2014-Jul-11 10:27N 01°17' E 103°46'1 0.8
2014-Jul-11 09:31N 01°17' E 103°45'3 3.2
2014-Jul-11 08:33N 01°15' E 103°47'3 0.7
2014-Jul-11 04:12N 01°13' E 103°49'0 0.1
2014-Jul-11 03:12N 01°13' E 103°49'0 0.1
2014-Jul-11 00:24N 01°13' E 103°49'1 0.9
2014-Jul-10 23:31N 01°13' E 103°50'4 4.2
2014-Jul-10 22:34N 01°14' E 103°54'3 3.3
2014-Jul-10 21:33N 01°15' E 103°57'  
2014-Jul-07 04:21N 21°52' E 113°57'1417.4
2014-Jul-07 03:32N 22°02' E 114°07'1212.0
2014-Jul-07 02:33N 22°14' E 114°08'6 0.4
2014-Jul-06 11:22N 22°20' E 114°07'15810.5
2014-Jul-05 20:16N 22°51' E 116°55'1217.3
2014-Jul-05 19:33N 22°57' E 117°07'5216.8
2014-Jul-05 16:26N 23°29' E 117°53'1517.0
2014-Jul-05 15:33N 23°39' E 118°05'1817.5
2014-Jul-05 14:33N 23°50' E 118°20'1817.7
2014-Jul-05 13:33N 24°01' E 118°35'1918.1
2014-Jul-05 12:31N 24°14' E 118°50'4018.0
2014-Jul-05 10:19N 24°41' E 119°22'33317.7
2014-Jul-04 15:33N 29°30' E 122°27'1616.4
2014-Jul-04 14:33N 29°45' E 122°19'1312.9
2014-Jul-04 13:34N 29°55' E 122°10'1413.6
2014-Jul-04 12:33N 29°59' E 121°55'4 3.8
2014-Jul-04 11:33N 29°56' E 121°52'0 0.0
2014-Jul-04 10:30N 29°56' E 121°52'0 0.0
2014-Jul-04 09:30N 29°56' E 121°52'0 0.0
2014-Jul-04 08:30N 29°56' E 121°52'0 0.0
2014-Jul-04 07:24N 29°56' E 121°52'0 0.0
2014-Jul-04 06:30N 29°56' E 121°52'0 0.0
2014-Jul-04 05:30N 29°56' E 121°52'0 0.0
2014-Jul-04 04:18N 29°56' E 121°52'0 0.0
2014-Jul-04 03:30N 29°56' E 121°52'0 0.0
2014-Jul-04 02:30N 29°56' E 121°52'0 0.0
2014-Jul-04 01:30N 29°56' E 121°52'0 0.0
2014-Jul-04 00:30N 29°56' E 121°52'1 0.7
2014-Jul-03 23:33N 29°56' E 121°53'1 0.9
2014-Jul-03 22:33N 29°57' E 121°54'2 1.6
2014-Jul-03 21:28N 29°58' E 121°55'0 0.1
2014-Jul-03 20:28N 29°58' E 121°55'0 0.2
2014-Jul-03 19:28N 29°58' E 121°55'0 0.1
2014-Jul-03 18:28N 29°58' E 121°55'0 0.1
2014-Jul-03 17:28N 29°58' E 121°55'0 0.2
2014-Jul-03 16:28N 29°58' E 121°55'0 0.1
2014-Jul-03 15:28N 29°58' E 121°55'0 0.2
2014-Jul-03 14:28N 29°58' E 121°55'0 0.0
2014-Jul-03 13:28N 29°58' E 121°55'0 0.1
2014-Jul-03 12:28N 29°58' E 121°55'0 0.0
2014-Jul-03 11:28N 29°58' E 121°55'0 0.0
2014-Jul-03 10:28N 29°58' E 121°55'4 3.9
2014-Jul-03 09:33N 29°58' E 121°59'1312.6
2014-Jul-03 08:33N 29°52' E 122°12'1010.3
2014-Jul-03 07:33N 29°45' E 122°21'6 5.3
2014-Jul-03 06:28N 29°47' E 122°27'0 0.0
2014-Jul-03 05:28N 29°47' E 122°27'0 0.0
2014-Jul-03 04:28N 29°47' E 122°27'0 0.0
2014-Jul-03 03:28N 29°47' E 122°27'0 0.1
2014-Jul-03 02:28N 29°47' E 122°27'0 0.0
2014-Jul-03 01:28N 29°47' E 122°27'0 0.1
2014-Jul-03 00:28N 29°47' E 122°27'0 0.1
2014-Jul-02 23:28N 29°47' E 122°27'0 0.1
2014-Jul-02 22:28N 29°47' E 122°27'0 0.1
2014-Jul-02 21:28N 29°47' E 122°27'0 0.1
2014-Jul-02 20:28N 29°47' E 122°27'0 0.1
2014-Jul-02 19:28N 29°47' E 122°27'0 0.2
2014-Jul-02 18:22N 29°47' E 122°27'0 0.2
2014-Jul-02 17:28N 29°47' E 122°27'0 0.1
2014-Jul-02 16:28N 29°47' E 122°27'0 0.0
2014-Jul-02 15:28N 29°47' E 122°27'2 1.9
2014-Jul-02 14:33N 29°47' E 122°29'1515.2
2014-Jul-02 13:33N 29°58' E 122°42'1919.1
2014-Jul-02 12:33N 30°15' E 122°50'1918.9
2014-Jul-02 11:33N 30°34' E 122°54'1918.8
2014-Jul-02 10:33N 30°52' E 122°49'3215.9
2014-Jul-02 08:33N 31°07' E 122°17'1514.6
2014-Jul-02 07:31N 31°15' E 122°01'1414.6
2014-Jul-02 06:33N 31°19' E 121°45'5 2.2
2014-Jul-02 04:23N 31°20' E 121°40'  
Track history (hours):
 
Tides and Currents Weather Stations Pressure Air Temp Water Temp Dewpoint Dewpoint Depression Visibility Wind Speed Wind Dir Waves Ship Positions

Wan Hai 501

Last reported at 2014-Jul-12 03:26 UTC. Time now 2014-Jul-24 12:19 UTC.
Position N 01°13' E 103°41'.
Warning: this ship's position is 12 days out of date.

Length 269 m; draft 11.6 m.

Type: Cargo ship. MMSI: 563382000.

Date/timePositionNaut miles runAvg speedWind from/ knotsBaromVisibWave heightAir tempDewpointWater temp
2014-Jul-12 03:26N 01°13' E 103°41'6 6.9
2014-Jul-12 02:33N 01°17' E 103°46'0 0.0
2014-Jul-12 01:33N 01°17' E 103°46'0 0.0
2014-Jul-12 00:33N 01°17' E 103°46'0 0.0
2014-Jul-11 22:33N 01°17' E 103°46'0 0.0
2014-Jul-11 20:33N 01°17' E 103°46'0 0.0
2014-Jul-11 19:33N 01°17' E 103°46'0 0.0
2014-Jul-11 18:21N 01°17' E 103°46'0 0.0
2014-Jul-11 17:27N 01°17' E 103°46'0 0.0
2014-Jul-11 16:27N 01°17' E 103°46'0 0.0
2014-Jul-11 15:33N 01°17' E 103°46'0 0.0
2014-Jul-11 13:33N 01°17' E 103°46'0 0.0
2014-Jul-11 12:21N 01°17' E 103°46'0 0.0
2014-Jul-11 11:27N 01°17' E 103°46'0 0.0
2014-Jul-11 10:27N 01°17' E 103°46'1 0.8
2014-Jul-11 09:31N 01°17' E 103°45'3 3.2
2014-Jul-11 08:33N 01°15' E 103°47'3 0.7
2014-Jul-11 04:12N 01°13' E 103°49'0 0.1
2014-Jul-11 03:12N 01°13' E 103°49'0 0.1
2014-Jul-11 00:24N 01°13' E 103°49'1 0.9
2014-Jul-10 23:31N 01°13' E 103°50'4 4.2
2014-Jul-10 22:34N 01°14' E 103°54'3 3.3
2014-Jul-10 21:33N 01°15' E 103°57'  
2014-Jul-07 04:21N 21°52' E 113°57'1417.4
2014-Jul-07 03:32N 22°02' E 114°07'1212.0
2014-Jul-07 02:33N 22°14' E 114°08'6 0.4
2014-Jul-06 11:22N 22°20' E 114°07'15810.5
2014-Jul-05 20:16N 22°51' E 116°55'1217.3
2014-Jul-05 19:33N 22°57' E 117°07'5216.8
2014-Jul-05 16:26N 23°29' E 117°53'1517.0
2014-Jul-05 15:33N 23°39' E 118°05'1817.5
2014-Jul-05 14:33N 23°50' E 118°20'1817.7
2014-Jul-05 13:33N 24°01' E 118°35'1918.1
2014-Jul-05 12:31N 24°14' E 118°50'4018.0
2014-Jul-05 10:19N 24°41' E 119°22'33317.7
2014-Jul-04 15:33N 29°30' E 122°27'1616.4
2014-Jul-04 14:33N 29°45' E 122°19'1312.9
2014-Jul-04 13:34N 29°55' E 122°10'1413.6
2014-Jul-04 12:33N 29°59' E 121°55'4 3.8
2014-Jul-04 11:33N 29°56' E 121°52'0 0.0
2014-Jul-04 10:30N 29°56' E 121°52'0 0.0
2014-Jul-04 09:30N 29°56' E 121°52'0 0.0
2014-Jul-04 08:30N 29°56' E 121°52'0 0.0
2014-Jul-04 07:24N 29°56' E 121°52'0 0.0
2014-Jul-04 06:30N 29°56' E 121°52'0 0.0
2014-Jul-04 05:30N 29°56' E 121°52'0 0.0
2014-Jul-04 04:18N 29°56' E 121°52'0 0.0
2014-Jul-04 03:30N 29°56' E 121°52'0 0.0
2014-Jul-04 02:30N 29°56' E 121°52'0 0.0
2014-Jul-04 01:30N 29°56' E 121°52'0 0.0
2014-Jul-04 00:30N 29°56' E 121°52'1 0.7
2014-Jul-03 23:33N 29°56' E 121°53'1 0.9
2014-Jul-03 22:33N 29°57' E 121°54'2 1.6
2014-Jul-03 21:28N 29°58' E 121°55'0 0.1
2014-Jul-03 20:28N 29°58' E 121°55'0 0.2
2014-Jul-03 19:28N 29°58' E 121°55'0 0.1
2014-Jul-03 18:28N 29°58' E 121°55'0 0.1
2014-Jul-03 17:28N 29°58' E 121°55'0 0.2
2014-Jul-03 16:28N 29°58' E 121°55'0 0.1
2014-Jul-03 15:28N 29°58' E 121°55'0 0.2
2014-Jul-03 14:28N 29°58' E 121°55'0 0.0
2014-Jul-03 13:28N 29°58' E 121°55'0 0.1
2014-Jul-03 12:28N 29°58' E 121°55'0 0.0
2014-Jul-03 11:28N 29°58' E 121°55'0 0.0
2014-Jul-03 10:28N 29°58' E 121°55'4 3.9
2014-Jul-03 09:33N 29°58' E 121°59'1312.6
2014-Jul-03 08:33N 29°52' E 122°12'1010.3
2014-Jul-03 07:33N 29°45' E 122°21'6 5.3
2014-Jul-03 06:28N 29°47' E 122°27'0 0.0
2014-Jul-03 05:28N 29°47' E 122°27'0 0.0
2014-Jul-03 04:28N 29°47' E 122°27'0 0.0
2014-Jul-03 03:28N 29°47' E 122°27'0 0.1
2014-Jul-03 02:28N 29°47' E 122°27'0 0.0
2014-Jul-03 01:28N 29°47' E 122°27'0 0.1
2014-Jul-03 00:28N 29°47' E 122°27'0 0.1
2014-Jul-02 23:28N 29°47' E 122°27'0 0.1
2014-Jul-02 22:28N 29°47' E 122°27'0 0.1
2014-Jul-02 21:28N 29°47' E 122°27'0 0.1
2014-Jul-02 20:28N 29°47' E 122°27'0 0.1
2014-Jul-02 19:28N 29°47' E 122°27'0 0.2
2014-Jul-02 18:22N 29°47' E 122°27'0 0.2
2014-Jul-02 17:28N 29°47' E 122°27'0 0.1
2014-Jul-02 16:28N 29°47' E 122°27'0 0.0
2014-Jul-02 15:28N 29°47' E 122°27'2 1.9
2014-Jul-02 14:33N 29°47' E 122°29'1515.2
2014-Jul-02 13:33N 29°58' E 122°42'1919.1
2014-Jul-02 12:33N 30°15' E 122°50'1918.9
2014-Jul-02 11:33N 30°34' E 122°54'1918.8
2014-Jul-02 10:33N 30°52' E 122°49'3215.9
2014-Jul-02 08:33N 31°07' E 122°17'1514.6
2014-Jul-02 07:31N 31°15' E 122°01'1414.6
2014-Jul-02 06:33N 31°19' E 121°45'5 2.2
2014-Jul-02 04:23N 31°20' E 121°40'  

Dump ship's entire track history